UNTT/TOF METAR and TAF weather

Enter ICAO airport designator
Station Type Date Time Source
UNTT METAR 2019/12/06 09:00 UTC NOAA

UNTT 060900Z 23007MPS 7000 -SHSN BKN008 BKN019CB 00/M00 Q1006 R21/590532 NOSIG RMK QFE740


Station Type Date Time Source
UNTT Decoded METAR 2019/12/06 09:00 UTC NOAA

Station name not available
Dec 06, 2019 - 04:00 AM EST / 2019.12.06 0900 UTC
Wind: from the SW (230 degrees) at 16 MPH (14 KT):0
Visibility: 4 mile(s):0
Sky conditions: mostly cloudy
Weather: light snow showers; Cumulonimbus clouds observed
Temperature: 32 F (0 C)
Windchill: 21 F (-6 C):1
Dew Point: 32 F (0 C)
Relative Humidity: 100%
Pressure (altimeter): 29.71 in. Hg (1006 hPa)
ob: UNTT 060900Z 23007MPS 7000 -SHSN BKN008 BKN019CB 00/M00 Q1006 R21/590532 NOSIG RMK QFE740
cycle: 9

Station Type Date Time Source
UNTT TAF UTC NOAA

Error!

Example: see airport list